Time;durP1;ratioP1;P1;durP2;ratioP2;P2;SDS_P1;SDS_P2;PMS_P1;PMS_P2;Temp;Humidity;BMP_temperature;BMP_pressure;BME280_temperature;BME280_humidity;BME280_pressure;Samples;Min_cycle;Max_cycle;Signal;HPM_P1;HPM_P2
2021/01/02 00:00:06;;;;;;;;;;;;;;;1.94;100.00;99296.56;5095352;28;19947;-76
2021/01/02 00:02:51;;;;;;;;;;;;;;;1.88;100.00;99305.50;5095044;28;19924;-76
2021/01/02 00:05:18;;;;;;;;;;;;;;;1.85;100.00;99309.75;5095228;28;19924;-76
2021/01/02 00:08:04;;;;;;;;;;;;;;;1.88;100.00;99311.03;5095158;28;19924;-76
2021/01/02 00:10:44;;;;;;;;;;;;;;;1.83;100.00;99320.38;5094506;28;19924;-76
2021/01/02 00:13:18;;;;;;;;;;;;;;;1.90;100.00;99323.28;5077111;28;19971;-76
2021/01/02 00:16:11;;;;;;;;;;;;;;;1.84;100.00;99314.50;5093850;28;20299;-76
2021/01/02 00:18:56;;;;;;;;;;;;;;;1.93;100.00;99319.78;5073434;28;20023;-76
2021/01/02 00:21:27;;;;;;;;;;;;;;;1.91;100.00;99324.84;5095012;28;20027;-76
2021/01/02 00:24:00;;;;;;;;;;;;;;;1.92;100.00;99321.75;5094613;28;19947;-76
2021/01/02 00:26:42;;;;;;;;;;;;;;;1.94;100.00;99334.38;5060583;28;19924;-76
2021/01/02 00:29:35;;;;;;;;;;;;;;;1.90;100.00;99334.28;5094697;28;20359;-76
2021/01/02 00:32:02;;;;;;;;;;;;;;;1.97;100.00;99322.63;5063682;28;19931;-76
2021/01/02 00:34:34;;;;;;;;;;;;;;;1.92;100.00;99322.91;5094720;28;19924;-76
2021/01/02 00:37:14;;;;;;;;;;;;;;;1.99;100.00;99323.06;5094647;28;20019;-76
2021/01/02 00:39:59;;;;;;;;;;;;;;;1.85;100.00;99307.00;5094640;28;19924;-76
2021/01/02 00:42:26;;;;;;;;;;;;;;;1.83;100.00;99312.88;5076518;28;20018;-76
2021/01/02 00:44:57;;;;;;;;;;;;;;;1.77;100.00;99319.81;5093594;28;19928;-76
2021/01/02 00:47:25;;;;;;;;;;;;;;;1.71;100.00;99321.25;5094453;28;20352;-76
2021/01/02 00:49:53;;;;;;;;;;;;;;;1.63;100.00;99314.00;5094429;28;19946;-76
2021/01/02 00:52:30;;;;;;;;;;;;;;;1.56;100.00;99313.84;5093928;28;20351;-76
2021/01/02 00:55:15;;;;;;;;;;;;;;;1.37;100.00;99308.28;5076274;28;19933;-76
2021/01/02 00:57:51;;;;;;;;;;;;;;;1.31;100.00;99317.97;5094262;28;19928;-76
2021/01/02 01:00:19;;;;;;;;;;;;;;;1.16;100.00;99318.78;5094167;28;19964;-76
2021/01/02 01:03:00;;;;;;;;;;;;;;;1.14;100.00;99340.34;5076232;28;20015;-76
2021/01/02 01:05:29;;;;;;;;;;;;;;;1.12;100.00;99347.34;5094060;28;19928;-76
2021/01/02 01:07:56;;;;;;;;;;;;;;;1.04;100.00;99343.63;5075673;28;19931;-76
2021/01/02 01:10:24;;;;;;;;;;;;;;;1.02;100.00;99340.41;5094005;28;19974;-76
2021/01/02 01:13:07;;;;;;;;;;;;;;;1.03;100.00;99355.75;5093907;28;20014;-76
2021/01/02 01:15:34;;;;;;;;;;;;;;;0.97;100.00;99354.44;5094091;28;19924;-76
2021/01/02 01:18:16;;;;;;;;;;;;;;;0.91;100.00;99364.09;5094027;28;20019;-76
2021/01/02 01:20:47;;;;;;;;;;;;;;;0.94;100.00;99374.38;5093811;28;19989;-76
2021/01/02 01:23:32;;;;;;;;;;;;;;;1.04;100.00;99368.38;5094025;28;19987;-76
2021/01/02 01:26:20;;;;;;;;;;;;;;;1.00;100.00;99375.72;5076322;28;20003;-76
2021/01/02 01:28:49;;;;;;;;;;;;;;;0.92;100.00;99376.72;5093900;28;19931;-76
2021/01/02 01:31:17;;;;;;;;;;;;;;;0.96;100.00;99388.59;5093743;28;19935;-76
2021/01/02 01:33:49;;;;;;;;;;;;;;;0.87;100.00;99385.22;5076040;28;20018;-76
2021/01/02 01:36:21;;;;;;;;;;;;;;;0.83;100.00;99386.28;5093566;28;19935;-76
2021/01/02 01:38:54;;;;;;;;;;;;;;;0.79;100.00;99388.91;5093740;28;19928;-76
2021/01/02 01:41:41;;;;;;;;;;;;;;;0.75;100.00;99395.47;5093734;28;19924;-74
2021/01/02 01:44:12;;;;;;;;;;;;;;;0.78;100.00;99400.28;5075689;28;19998;-76
2021/01/02 01:46:54;;;;;;;;;;;;;;;0.82;100.00;99404.72;5093652;28;19924;-76
2021/01/02 01:49:30;;;;;;;;;;;;;;;0.82;100.00;99404.72;5093760;28;20348;-76
2021/01/02 01:51:57;;;;;;;;;;;;;;;0.78;100.00;99414.84;5075177;28;19924;-76
2021/01/02 01:54:43;;;;;;;;;;;;;;;0.56;100.00;99396.13;5093679;28;19924;-76
2021/01/02 01:57:10;;;;;;;;;;;;;;;0.36;100.00;99408.13;5078635;28;20371;-76
2021/01/02 01:59:45;;;;;;;;;;;;;;;0.25;100.00;99417.19;5097652;28;19924;-76
2021/01/02 02:02:16;;;;;;;;;;;;;;;0.17;100.00;99416.16;5079359;28;20283;-76
2021/01/02 02:04:55;;;;;;;;;;;;;;;0.22;100.00;99418.69;5079378;28;20367;-76
2021/01/02 02:07:36;;;;;;;;;;;;;;;0.09;100.00;99422.63;5079505;28;19924;-73
2021/01/02 02:10:03;;;;;;;;;;;;;;;0.11;100.00;99434.03;5097252;28;19924;-76
2021/01/02 02:12:33;;;;;;;;;;;;;;;0.06;100.00;99431.53;5097365;28;19931;-76
2021/01/02 02:15:00;;;;;;;;;;;;;;;-0.02;100.00;99446.97;5097370;28;19924;-76
2021/01/02 02:17:37;;;;;;;;;;;;;;;-0.09;100.00;99451.44;5097330;28;19931;-76
2021/01/02 02:20:07;;;;;;;;;;;;;;;-0.06;100.00;99456.25;5096204;28;20440;-76
2021/01/02 02:22:38;;;;;;;;;;;;;;;-0.29;100.00;99455.13;5075935;28;20015;-75
2021/01/02 02:25:06;;;;;;;;;;;;;;;-0.38;100.00;99460.72;5075816;28;19931;-73
2021/01/02 02:27:38;;;;;;;;;;;;;;;-0.43;100.00;99474.69;5076811;28;19974;-73
2021/01/02 02:30:18;;;;;;;;;;;;;;;-0.53;100.00;99469.63;5058900;28;20017;-76
2021/01/02 02:32:47;;;;;;;;;;;;;;;-0.60;100.00;99474.06;5058683;28;19925;-76
2021/01/02 02:35:14;;;;;;;;;;;;;;;-0.60;100.00;99476.81;5076227;28;19928;-75
2021/01/02 02:37:52;;;;;;;;;;;;;;;-0.53;100.00;99491.56;5076369;28;19932;-76
2021/01/02 02:40:21;;;;;;;;;;;;;;;-0.48;100.00;99498.78;5076646;28;19928;-75
2021/01/02 02:42:54;;;;;;;;;;;;;;;-0.40;100.00;99511.63;5059153;28;19970;-76
2021/01/02 02:45:23;;;;;;;;;;;;;;;-0.29;100.00;99513.56;5076641;28;19978;-76
2021/01/02 02:47:53;;;;;;;;;;;;;;;-0.15;100.00;99524.25;5076162;28;19925;-76
2021/01/02 02:50:23;;;;;;;;;;;;;;;-0.09;100.00;99537.41;5076489;28;19925;-76
2021/01/02 02:53:01;;;;;;;;;;;;;;;-0.17;100.00;99538.31;5076428;28;19924;-75
2021/01/02 02:55:29;;;;;;;;;;;;;;;-0.06;100.00;99561.44;5076484;28;20014;-76
2021/01/02 02:57:56;;;;;;;;;;;;;;;-0.03;100.00;99565.44;5058620;28;19946;-75
2021/01/02 03:00:23;;;;;;;;;;;;;;;-0.04;100.00;99572.09;5076178;28;19924;-76
2021/01/02 03:02:49;;;;;;;;;;;;;;;-0.06;100.00;99583.44;5075892;28;19943;-76
2021/01/02 03:05:16;;;;;;;;;;;;;;;0.00;100.00;99576.56;5076287;28;20050;-76
2021/01/02 03:07:44;;;;;;;;;;;;;;;0.01;100.00;99588.38;5075259;28;19924;-76
2021/01/02 03:10:11;;;;;;;;;;;;;;;-0.05;100.00;99578.75;5076164;28;19928;-76
2021/01/02 03:12:46;;;;;;;;;;;;;;;0.06;100.00;99584.59;5075960;28;20284;-76
2021/01/02 03:15:13;;;;;;;;;;;;;;;0.10;100.00;99583.56;5076173;28;20023;-76
2021/01/02 03:17:44;;;;;;;;;;;;;;;0.02;100.00;99581.72;5058065;28;19932;-76
2021/01/02 03:20:11;;;;;;;;;;;;;;;0.06;100.00;99590.91;5076053;28;19931;-76
2021/01/02 03:22:39;;;;;;;;;;;;;;;0.01;100.00;99588.38;5075985;28;19924;-76
2021/01/02 03:25:09;;;;;;;;;;;;;;;-0.04;100.00;99583.91;5075899;28;20019;-76
2021/01/02 03:27:36;;;;;;;;;;;;;;;0.05;100.00;99594.78;5075958;28;19924;-76
2021/01/02 03:30:04;;;;;;;;;;;;;;;0.12;100.00;99595.03;5075906;28;19925;-76
2021/01/02 03:32:31;;;;;;;;;;;;;;;0.07;100.00;99595.25;5057719;28;19971;-73
2021/01/02 03:34:57;;;;;;;;;;;;;;;0.04;100.00;99593.19;5075869;28;19982;-76
2021/01/02 03:37:24;;;;;;;;;;;;;;;0.03;100.00;99597.88;5075771;28;20018;-76
2021/01/02 03:39:51;;;;;;;;;;;;;;;0.00;100.00;99589.53;5057998;28;19925;-77
2021/01/02 03:42:17;;;;;;;;;;;;;;;-0.08;100.00;99584.94;5057952;28;19940;-76
2021/01/02 03:44:44;;;;;;;;;;;;;;;-0.15;100.00;99584.66;5075705;28;19931;-76
2021/01/02 03:47:11;;;;;;;;;;;;;;;-0.21;100.00;99575.84;5057465;28;20013;-76
2021/01/02 03:49:37;;;;;;;;;;;;;;;-0.24;100.00;99587.50;5075524;28;19951;-76
2021/01/02 03:52:07;;;;;;;;;;;;;;;-0.28;100.00;99583.03;5075470;28;19925;-76
2021/01/02 03:54:34;;;;;;;;;;;;;;;-0.27;100.00;99584.63;5075457;28;19960;-76
2021/01/02 03:57:01;;;;;;;;;;;;;;;-0.33;100.00;99588.75;5075341;28;20363;-76
2021/01/02 03:59:27;;;;;;;;;;;;;;;-0.30;100.00;99594.38;5075590;28;19936;-75
2021/01/02 04:01:54;;;;;;;;;;;;;;;-0.46;100.00;99595.34;5074868;28;19924;-76
2021/01/02 04:04:21;;;;;;;;;;;;;;;-0.75;100.00;99579.00;5075334;28;20295;-76
2021/01/02 04:06:48;;;;;;;;;;;;;;;-0.87;100.00;99568.78;5057478;28;20398;-76
2021/01/02 04:09:14;;;;;;;;;;;;;;;-0.77;100.00;99581.25;5074991;28;19929;-75
2021/01/02 04:11:42;;;;;;;;;;;;;;;-0.92;100.00;99579.13;5057682;28;20395;-75
2021/01/02 04:14:09;;;;;;;;;;;;;;;-1.04;100.00;99579.06;5075064;28;20037;-75
2021/01/02 04:16:36;;;;;;;;;;;;;;;-1.11;100.00;99578.81;5074724;28;19924;-76
2021/01/02 04:19:04;;;;;;;;;;;;;;;-1.19;100.00;99590.66;5057167;28;19931;-76
2021/01/02 04:21:30;;;;;;;;;;;;;;;-1.12;100.00;99582.72;5074875;28;19932;-76
2021/01/02 04:23:57;;;;;;;;;;;;;;;-1.15;100.00;99577.88;5074874;28;19924;-75
2021/01/02 04:26:25;;;;;;;;;;;;;;;-1.28;100.00;99584.41;5056854;28;19978;-75
2021/01/02 04:28:52;;;;;;;;;;;;;;;-1.28;100.00;99587.16;5075017;28;20314;-75
2021/01/02 04:31:19;;;;;;;;;;;;;;;-1.34;100.00;99585.75;5074370;28;19925;-76
2021/01/02 04:33:49;;;;;;;;;;;;;;;-1.39;100.00;99589.50;5074640;28;20012;-76
2021/01/02 04:36:16;;;;;;;;;;;;;;;-1.28;100.00;99609.91;5074548;28;19935;-76
2021/01/02 04:38:43;;;;;;;;;;;;;;;-1.19;100.00;99615.31;5074583;28;19932;-76
2021/01/02 04:41:14;;;;;;;;;;;;;;;-1.08;100.00;99620.09;5056633;28;19932;-76
2021/01/02 04:43:45;;;;;;;;;;;;;;;-0.87;100.00;99647.53;5074372;28;19925;-75
2021/01/02 04:46:12;;;;;;;;;;;;;;;-0.81;100.00;99648.94;5074484;28;20485;-75
2021/01/02 04:48:42;;;;;;;;;;;;;;;-0.95;100.00;99642.91;5074447;28;20398;-75
2021/01/02 04:51:09;;;;;;;;;;;;;;;-0.83;100.00;99645.72;5074358;28;20019;-75
2021/01/02 04:53:35;;;;;;;;;;;;;;;-0.54;100.00;99664.84;5056369;28;19978;-75
2021/01/02 04:56:05;;;;;;;;;;;;;;;-0.42;100.00;99684.94;5089946;28;19932;-76
2021/01/02 04:58:34;;;;;;;;;;;;;;;-0.18;100.00;99674.06;5074000;28;19924;-76
2021/01/02 05:01:02;;;;;;;;;;;;;;;-0.23;100.00;99659.72;5074054;28;19939;-76
2021/01/02 05:03:29;;;;;;;;;;;;;;;-0.16;100.00;99669.03;5074019;28;19924;-76
2021/01/02 05:05:56;;;;;;;;;;;;;;;-0.32;100.00;99672.75;5056121;28;20299;-76
2021/01/02 05:08:23;;;;;;;;;;;;;;;-0.34;100.00;99669.53;5073673;28;19931;-76
2021/01/02 05:10:56;;;;;;;;;;;;;;;-0.28;100.00;99658.00;5073841;28;19960;-76
2021/01/02 05:13:26;;;;;;;;;;;;;;;-0.28;100.00;99646.19;5073618;28;19924;-76
2021/01/02 05:15:53;;;;;;;;;;;;;;;-0.10;100.00;99659.44;5073857;28;19924;-76
2021/01/02 05:18:22;;;;;;;;;;;;;;;0.28;100.00;99669.34;5073843;28;19936;-76
2021/01/02 05:20:48;;;;;;;;;;;;;;;0.42;100.00;99665.16;5073697;28;19947;-76
2021/01/02 05:23:15;;;;;;;;;;;;;;;0.32;100.00;99649.09;5073797;28;19924;-76
2021/01/02 05:25:42;;;;;;;;;;;;;;;0.42;100.00;99640.41;5073828;28;19994;-76
2021/01/02 05:28:16;;;;;;;;;;;;;;;0.21;100.00;99619.66;5055624;28;19932;-76
2021/01/02 05:30:43;;;;;;;;;;;;;;;0.14;100.00;99619.44;5073110;28;20292;-76
2021/01/02 05:33:11;;;;;;;;;;;;;;;0.29;100.00;99624.25;5073663;28;19925;-76
2021/01/02 05:35:44;;;;;;;;;;;;;;;0.25;100.00;99609.56;5073701;28;19950;-76
2021/01/02 05:38:14;;;;;;;;;;;;;;;0.23;100.00;99614.63;5055882;28;20401;-76
2021/01/02 05:40:42;;;;;;;;;;;;;;;0.05;100.00;99594.78;5073437;28;19924;-76
2021/01/02 05:43:09;;;;;;;;;;;;;;;0.03;100.00;99588.84;5073137;28;20398;-76
2021/01/02 05:45:35;;;;;;;;;;;;;;;-0.09;100.00;99580.56;5073688;28;20323;-76
2021/01/02 05:48:16;;;;;;;;;;;;;;;-0.10;100.00;99576.22;5073560;28;19946;-76
2021/01/02 05:50:50;;;;;;;;;;;;;;;-0.27;100.00;99574.47;5055503;28;19924;-76
2021/01/02 05:53:17;;;;;;;;;;;;;;;-0.20;100.00;99580.19;5073310;28;20072;-73
2021/01/02 05:55:44;;;;;;;;;;;;;;;-0.15;100.00;99576.44;5073448;28;20014;-76
2021/01/02 05:58:14;;;;;;;;;;;;;;;-0.18;100.00;99572.44;5073162;28;19925;-76
2021/01/02 06:00:45;;;;;;;;;;;;;;;-0.24;100.00;99570.22;5073434;28;19971;-76
2021/01/02 06:03:21;;;;;;;;;;;;;;;0.02;100.00;99581.72;5073255;28;20005;-76
2021/01/02 06:05:58;;;;;;;;;;;;;;;0.05;100.00;99577.50;5073381;28;19970;-76
2021/01/02 06:08:32;;;;;;;;;;;;;;;0.09;100.00;99579.22;5072978;28;19925;-73
2021/01/02 06:11:00;;;;;;;;;;;;;;;0.14;100.00;99575.47;5072769;28;19924;-76
2021/01/02 06:13:31;;;;;;;;;;;;;;;0.51;100.00;99579.78;5073451;28;19983;-75
2021/01/02 06:15:58;;;;;;;;;;;;;;;0.57;100.00;99586.66;5073349;28;19971;-76
2021/01/02 06:18:27;;;;;;;;;;;;;;;0.64;100.00;99584.13;5073283;28;19947;-76
2021/01/02 06:20:56;;;;;;;;;;;;;;;0.65;100.00;99586.53;5073220;28;20312;-76
2021/01/02 06:23:23;;;;;;;;;;;;;;;0.63;100.00;99583.34;5055367;28;19924;-76
2021/01/02 06:25:51;;;;;;;;;;;;;;;0.68;100.00;99585.06;5072879;28;20340;-76
2021/01/02 06:28:18;;;;;;;;;;;;;;;0.61;100.00;99580.13;5073221;28;20279;-76
2021/01/02 06:30:44;;;;;;;;;;;;;;;0.59;100.00;99587.91;5073136;28;20043;-76
2021/01/02 06:33:14;;;;;;;;;;;;;;;0.55;100.00;99603.50;5072897;28;19924;-76
2021/01/02 06:35:41;;;;;;;;;;;;;;;0.49;100.00;99596.63;5055468;28;19930;-76
2021/01/02 06:38:11;;;;;;;;;;;;;;;0.47;100.00;99595.38;5073097;28;19977;-76
2021/01/02 06:40:42;;;;;;;;;;;;;;;0.50;100.00;99595.47;5072702;28;19928;-76
2021/01/02 06:43:11;;;;;;;;;;;;;;;0.55;100.00;99599.94;5074180;28;20015;-76
2021/01/02 06:45:38;;;;;;;;;;;;;;;0.58;100.00;99597.31;5058768;28;20371;-76
2021/01/02 06:48:17;;;;;;;;;;;;;;;0.67;100.00;99589.75;5076696;28;19928;-76
2021/01/02 06:50:44;;;;;;;;;;;;;;;0.72;100.00;99570.28;5058702;28;20362;-76
2021/01/02 06:53:23;;;;;;;;;;;;;;;0.76;100.00;99564.88;5058584;28;19932;-76
2021/01/02 06:55:56;;;;;;;;;;;;;;;0.73;100.00;99541.59;5076103;28;19931;-76
2021/01/02 06:58:23;;;;;;;;;;;;;;;0.63;100.00;99528.34;5058472;28;19925;-76
2021/01/02 07:00:50;;;;;;;;;;;;;;;0.66;100.00;99507.59;5058380;28;20245;-76
2021/01/02 07:03:35;;;;;;;;;;;;;;;0.66;100.00;99494.63;5076260;28;20023;-76
2021/01/02 07:06:19;;;;;;;;;;;;;;;0.70;100.00;99467.22;5076280;28;19924;-76
2021/01/02 07:08:48;;;;;;;;;;;;;;;0.62;100.00;99448.94;5075842;28;19931;-76
2021/01/02 07:11:38;;;;;;;;;;;;;;;0.62;100.00;99438.72;5041365;28;19947;-76
2021/01/02 07:14:16;;;;;;;;;;;;;;;0.55;100.00;99405.53;5058186;28;20376;-76
2021/01/02 07:16:45;;;;;;;;;;;;;;;0.57;100.00;99385.94;5041832;28;19924;-76
2021/01/02 07:19:27;;;;;;;;;;;;;;;0.50;100.00;99364.53;5075988;28;19924;-76
2021/01/02 07:21:59;;;;;;;;;;;;;;;0.52;100.00;99342.97;5075932;28;19932;-75
2021/01/02 07:24:30;;;;;;;;;;;;;;;0.56;100.00;99335.63;5075708;28;19931;-75
2021/01/02 07:26:58;;;;;;;;;;;;;;;0.65;100.00;99321.72;5075820;28;19932;-76
2021/01/02 07:29:25;;;;;;;;;;;;;;;0.66;100.00;99317.81;5075644;28;20295;-76
2021/01/02 07:31:52;;;;;;;;;;;;;;;0.56;100.00;99299.09;5074115;28;19948;-75
2021/01/02 07:34:22;;;;;;;;;;;;;;;0.57;100.00;99300.69;5057374;28;19925;-73
2021/01/02 07:36:49;;;;;;;;;;;;;;;0.46;100.00;99288.59;5075626;28;19928;-75
2021/01/02 07:39:17;;;;;;;;;;;;;;;0.41;100.00;99278.66;5074924;28;19925;-73
2021/01/02 07:41:44;;;;;;;;;;;;;;;0.33;100.00;99265.88;5075280;28;19925;-74
2021/01/02 07:44:11;;;;;;;;;;;;;;;0.29;100.00;99264.97;5075276;28;20363;-74
2021/01/02 07:46:42;;;;;;;;;;;;;;;0.33;100.00;99263.13;5075618;28;19931;-74
2021/01/02 07:49:09;;;;;;;;;;;;;;;0.28;100.00;99259.81;5075305;28;19925;-74
2021/01/02 07:51:35;;;;;;;;;;;;;;;0.35;100.00;99258.06;5075223;28;19982;-74
2021/01/02 07:54:02;;;;;;;;;;;;;;;0.44;100.00;99244.97;5074484;28;19924;-74
2021/01/02 07:56:33;;;;;;;;;;;;;;;0.36;100.00;99234.94;5075076;28;19924;-74
2021/01/02 07:59:18;;;;;;;;;;;;;;;0.34;100.00;99219.94;5075081;28;20323;-74
2021/01/02 08:01:55;;;;;;;;;;;;;;;0.31;100.00;99207.72;5075102;28;19932;-74
2021/01/02 08:04:22;;;;;;;;;;;;;;;0.25;100.00;99191.81;5075025;28;19932;-74
2021/01/02 08:06:50;;;;;;;;;;;;;;;0.23;100.00;99191.41;5074613;28;19924;-74
2021/01/02 08:09:17;;;;;;;;;;;;;;;0.17;100.00;99174.34;5074764;28;19924;-74
2021/01/02 08:11:47;;;;;;;;;;;;;;;0.17;100.00;99168.84;5074893;28;20390;-74
2021/01/02 08:14:13;;;;;;;;;;;;;;;0.20;100.00;99102.19;5074806;28;19924;-74
2021/01/02 08:16:40;;;;;;;;;;;;;;;0.20;100.00;99003.28;5074673;28;19925;-74
2021/01/02 08:19:07;;;;;;;;;;;;;;;0.19;100.00;98998.13;5074681;28;19986;-74
2021/01/02 08:21:37;;;;;;;;;;;;;;;0.22;100.00;99005.66;5056597;28;19925;-74
2021/01/02 08:24:04;;;;;;;;;;;;;;;0.27;100.00;99003.44;5056823;28;20405;-74
2021/01/02 08:26:31;;;;;;;;;;;;;;;0.19;100.00;99007.19;5074643;28;19931;-75
2021/01/02 08:28:58;;;;;;;;;;;;;;;0.17;100.00;99003.97;5074618;28;19929;-80
2021/01/02 08:31:26;;;;;;;;;;;;;;;0.15;100.00;99008.25;5056870;28;20391;-78
2021/01/02 08:33:54;;;;;;;;;;;;;;;-0.03;100.00;99005.06;5074393;28;20021;-77
2021/01/02 08:36:21;;;;;;;;;;;;;;;-0.26;100.00;99004.88;5056599;28;19931;-76
2021/01/02 08:38:57;;;;;;;;;;;;;;;-0.54;100.00;98998.66;5056880;28;19924;-77
2021/01/02 08:41:25;;;;;;;;;;;;;;;-0.80;100.00;98994.78;5074510;28;20334;-76
2021/01/02 08:43:54;;;;;;;;;;;;;;;-0.67;100.00;99007.31;5074616;28;19931;-76
2021/01/02 08:46:23;;;;;;;;;;;;;;;-0.68;100.00;99005.75;5056860;28;19929;-77
2021/01/02 08:48:50;;;;;;;;;;;;;;;-0.73;100.00;99003.25;5074736;28;19931;-77
2021/01/02 08:51:27;;;;;;;;;;;;;;;-0.85;100.00;99006.03;5074151;28;19931;-76
2021/01/02 08:53:53;;;;;;;;;;;;;;;-0.97;100.00;99008.84;5074662;28;19924;-77
2021/01/02 08:56:26;;;;;;;;;;;;;;;-1.01;100.00;99008.72;5074599;28;19924;-77
2021/01/02 08:58:53;;;;;;;;;;;;;;;-1.03;100.00;99018.47;5056457;28;20011;-77
2021/01/02 09:01:20;;;;;;;;;;;;;;;-1.03;100.00;99018.47;5074407;28;20355;-77
2021/01/02 09:03:46;;;;;;;;;;;;;;;-1.12;100.00;99020.56;5074692;28;19994;-77
2021/01/02 09:06:20;;;;;;;;;;;;;;;-1.19;100.00;99023.06;5073472;28;19963;-77
2021/01/02 09:09:03;;;;;;;;;;;;;;;-1.20;100.00;99026.97;5074605;28;19946;-77
2021/01/02 09:11:46;;;;;;;;;;;;;;;-1.19;100.00;99028.56;5074340;28;19932;-77
2021/01/02 09:14:12;;;;;;;;;;;;;;;-1.11;100.00;99041.34;5074317;28;20263;-77
2021/01/02 09:16:39;;;;;;;;;;;;;;;-1.02;100.00;99036.50;5074403;28;19925;-76
2021/01/02 09:19:05;;;;;;;;;;;;;;;-0.98;100.00;99046.44;5074323;28;20018;-78
2021/01/02 09:21:32;;;;;;;;;;;;;;;-0.93;100.00;99034.41;5056515;28;19932;-77
2021/01/02 09:23:59;;;;;;;;;;;;;;;-0.85;100.00;99049.94;5056229;28;20017;-77
2021/01/02 09:26:32;;;;;;;;;;;;;;;-0.42;100.00;99044.44;5074283;28;20356;-77
2021/01/02 09:28:59;;;;;;;;;;;;;;;-0.05;100.00;99049.34;5074234;28;20375;-77
2021/01/02 09:31:26;;;;;;;;;;;;;;;0.17;100.00;99061.69;5056293;28;20337;-79
2021/01/02 09:33:53;;;;;;;;;;;;;;;0.33;100.00;99051.50;5039385;28;20409;-78
2021/01/02 09:36:21;;;;;;;;;;;;;;;0.65;100.00;99053.00;5055842;28;19925;-75
2021/01/02 09:38:48;;;;;;;;;;;;;;;0.85;100.00;99040.13;5074224;28;19924;-79
2021/01/02 09:41:17;;;;;;;;;;;;;;;0.88;100.00;99037.44;5073877;28;19932;-75
2021/01/02 09:43:44;;;;;;;;;;;;;;;0.92;100.00;99034.75;5073867;28;19978;-76
2021/01/02 09:46:17;;;;;;;;;;;;;;;1.06;100.00;99029.56;5073468;28;20367;-76
2021/01/02 09:48:44;;;;;;;;;;;;;;;1.09;100.00;99031.59;5073314;28;20429;-75
2021/01/02 09:51:11;;;;;;;;;;;;;;;1.21;100.00;99034.97;5055769;28;20019;-76
2021/01/02 09:53:38;;;;;;;;;;;;;;;1.38;100.00;99029.03;5089146;28;19935;-78
2021/01/02 09:56:05;;;;;;;;;;;;;;;1.54;100.00;99023.44;5055819;28;20051;-76
2021/01/02 09:58:31;;;;;;;;;;;;;;;1.62;100.00;99028.72;5073548;28;19987;-75
2021/01/02 10:01:00;;;;;;;;;;;;;;;1.64;100.00;99018.13;5073632;28;19931;-75
2021/01/02 10:03:26;;;;;;;;;;;;;;;1.52;100.00;99023.00;5073095;28;20430;-75
2021/01/02 10:05:53;;;;;;;;;;;;;;;1.38;100.00;99023.53;5073432;28;20016;-75
2021/01/02 10:08:21;;;;;;;;;;;;;;;1.31;100.00;99026.16;5073385;28;20364;-78
2021/01/02 10:10:47;;;;;;;;;;;;;;;1.28;100.00;99021.38;5073315;28;19931;-75
2021/01/02 10:13:14;;;;;;;;;;;;;;;1.18;100.00;99021.16;5073209;28;20288;-75
2021/01/02 10:15:41;;;;;;;;;;;;;;;1.21;100.00;99029.47;5055587;28;19924;-75
2021/01/02 10:18:08;;;;;;;;;;;;;;;1.23;100.00;99024.41;5075622;28;19924;-75
2021/01/02 10:20:59;;;;;;;;;;;;;;;1.19;100.00;99020.81;5092900;28;20016;-75
2021/01/02 10:23:27;;;;;;;;;;;;;;;1.15;100.00;99019.91;5087079;28;19942;-76
2021/01/02 10:25:54;;;;;;;;;;;;;;;1.24;100.00;99020.50;5097041;28;19943;-76
2021/01/02 10:28:20;;;;;;;;;;;;;;;1.27;100.00;99022.50;5096914;28;20026;-75
2021/01/02 10:30:47;;;;;;;;;;;;;;;1.28;100.00;99026.06;5096913;28;19924;-75
2021/01/02 10:33:14;;;;;;;;;;;;;;;1.29;100.00;99014.69;5096605;28;19947;-76
2021/01/02 10:35:40;;;;;;;;;;;;;;;1.23;100.00;99013.41;5093211;28;19930;-75
2021/01/02 10:38:07;;;;;;;;;;;;;;;1.21;100.00;99012.97;5096660;28;19924;-76
2021/01/02 10:40:36;;;;;;;;;;;;;;;1.25;100.00;99010.28;5094804;28;19931;-77
2021/01/02 10:43:02;;;;;;;;;;;;;;;1.20;100.00;99011.38;5083977;28;19931;-76
2021/01/02 10:45:29;;;;;;;;;;;;;;;1.19;100.00;99018.06;5094179;28;20677;-75
2021/01/02 10:47:55;;;;;;;;;;;;;;;1.14;100.00;99015.59;5096212;28;19931;-75
2021/01/02 10:50:22;;;;;;;;;;;;;;;1.10;100.00;99014.72;5096918;28;19932;-76
2021/01/02 10:52:48;;;;;;;;;;;;;;;1.15;100.00;99017.16;5096721;28;19939;-77
2021/01/02 10:55:15;;;;;;;;;;;;;;;1.05;100.00;99015.00;5096955;28;20014;-76
2021/01/02 10:57:42;;;;;;;;;;;;;;;1.06;100.00;99018.56;5096837;28;20318;-77
2021/01/02 11:00:09;;;;;;;;;;;;;;;1.07;100.00;99015.44;5096848;28;20484;-77
2021/01/02 11:02:35;;;;;;;;;;;;;;;1.16;100.00;99018.78;5078707;28;19924;-79
2021/01/02 11:05:02;;;;;;;;;;;;;;;1.26;100.00;99023.69;5096536;28;19931;-77
2021/01/02 11:07:29;;;;;;;;;;;;;;;1.32;100.00;99030.50;5096528;28;19928;-77
2021/01/02 11:09:55;;;;;;;;;;;;;;;1.34;100.00;99030.94;5096249;28;19955;-76
2021/01/02 11:12:22;;;;;;;;;;;;;;;1.40;100.00;99023.97;5096599;28;20015;-76
2021/01/02 11:14:52;;;;;;;;;;;;;;;1.42;100.00;99013.38;5096467;28;19974;-76
2021/01/02 11:17:19;;;;;;;;;;;;;;;1.39;100.00;99014.09;5096039;28;19928;-76
2021/01/02 11:19:46;;;;;;;;;;;;;;;1.50;100.00;99011.56;5096188;28;19928;-75
2021/01/02 11:22:13;;;;;;;;;;;;;;;1.16;100.00;99007.78;5096183;28;19924;-76
2021/01/02 11:24:40;;;;;;;;;;;;;;;1.20;100.00;99007.81;5078175;28;19924;-77
2021/01/02 11:27:07;;;;;;;;;;;;;;;1.28;100.00;99021.38;5078145;28;19924;-76
2021/01/02 11:29:34;;;;;;;;;;;;;;;1.37;100.00;99019.19;5095227;28;20306;-74
2021/01/02 11:32:05;;;;;;;;;;;;;;;1.43;100.00;99022.44;5077064;28;20017;-76
2021/01/02 11:34:32;;;;;;;;;;;;;;;1.34;100.00;99032.88;5077551;28;19924;-75
2021/01/02 11:37:00;;;;;;;;;;;;;;;1.31;100.00;99031.66;5095843;28;19989;-75
2021/01/02 11:39:27;;;;;;;;;;;;;;;1.32;100.00;99024.19;5095584;28;19978;-76
2021/01/02 11:41:54;;;;;;;;;;;;;;;1.40;100.00;99018.47;5077825;28;19931;-78
2021/01/02 11:44:22;;;;;;;;;;;;;;;1.54;100.00;99018.75;5077392;28;19924;-76
2021/01/02 11:46:52;;;;;;;;;;;;;;;1.74;100.00;99012.00;5078264;28;19924;-76
2021/01/02 11:49:20;;;;;;;;;;;;;;;1.69;100.00;99009.56;5077644;28;19979;-76
2021/01/02 11:51:54;;;;;;;;;;;;;;;1.62;100.00;98998.41;5095809;28;19967;-77
2021/01/02 11:54:21;;;;;;;;;;;;;;;1.67;100.00;98991.81;5095718;28;19924;-77
2021/01/02 11:56:48;;;;;;;;;;;;;;;1.78;100.00;98990.84;5095396;28;20040;-76
2021/01/02 11:59:15;;;;;;;;;;;;;;;1.82;100.00;98986.19;5095237;28;19924;-76
2021/01/02 12:01:43;;;;;;;;;;;;;;;1.74;100.00;98978.94;5095472;28;19924;-76
2021/01/02 12:04:11;;;;;;;;;;;;;;;1.68;100.00;98974.91;5077366;28;19924;-78
2021/01/02 12:06:41;;;;;;;;;;;;;;;1.61;100.00;98974.78;5095205;28;20073;-75
2021/01/02 12:09:08;;;;;;;;;;;;;;;1.60;100.00;98978.72;5076852;28;20367;-75
2021/01/02 12:11:38;;;;;;;;;;;;;;;1.57;100.00;98973.94;5095026;28;20271;-75
2021/01/02 12:14:05;;;;;;;;;;;;;;;1.52;100.00;98974.25;5076546;28;19924;-75
2021/01/02 12:16:48;;;;;;;;;;;;;;;1.44;100.00;98975.25;5094963;28;19931;-76
2021/01/02 12:19:19;;;;;;;;;;;;;;;1.32;100.00;98975.44;5094985;28;19924;-76
2021/01/02 12:21:46;;;;;;;;;;;;;;;1.33;100.00;98979.78;5095191;28;19935;-77
2021/01/02 12:24:13;;;;;;;;;;;;;;;1.43;100.00;98973.69;5060507;28;19924;-77
2021/01/02 12:26:45;;;;;;;;;;;;;;;1.45;100.00;98982.34;5076836;28;19924;-77
2021/01/02 12:29:13;;;;;;;;;;;;;;;1.17;100.00;98970.81;5094594;28;20367;-76
2021/01/02 12:31:42;;;;;;;;;;;;;;;1.26;100.00;98973.34;5076630;28;19978;-76
2021/01/02 12:34:09;;;;;;;;;;;;;;;1.37;100.00;98980.66;5095070;28;20099;-76
2021/01/02 12:36:39;;;;;;;;;;;;;;;1.33;100.00;98973.50;5076936;28;20020;-77
2021/01/02 12:39:06;;;;;;;;;;;;;;;1.32;100.00;98980.94;5094642;28;19946;-79
2021/01/02 12:41:33;;;;;;;;;;;;;;;1.20;100.00;98969.28;5094958;28;19924;-76
2021/01/02 12:44:00;;;;;;;;;;;;;;;0.87;100.00;98975.31;5076134;28;19928;-78
2021/01/02 12:46:26;;;;;;;;;;;;;;;0.88;100.00;98967.88;5094522;28;20358;-75
2021/01/02 12:48:53;;;;;;;;;;;;;;;0.88;100.00;98976.91;5094489;28;19931;-76
2021/01/02 12:51:22;;;;;;;;;;;;;;;0.90;100.00;98974.59;5094508;28;19924;-76
2021/01/02 12:53:48;;;;;;;;;;;;;;;0.89;100.00;98970.28;5076131;28;19935;-75
2021/01/02 12:56:16;;;;;;;;;;;;;;;0.77;100.00;98962.16;5094228;28;19969;-75